Time;durP1;ratioP1;P1;durP2;ratioP2;P2;SDS_P1;SDS_P2;PMS_P1;PMS_P2;Temp;Humidity;BMP_temperature;BMP_pressure;BME280_temperature;BME280_humidity;BME280_pressure;Samples;Min_cycle;Max_cycle;Signal;HPM_P1;HPM_P2
2022/10/22 00:00:46;;;;;;;12.30;9.77;;;;;;;;;;5027231;28;20038;-76
2022/10/22 00:03:13;;;;;;;13.20;9.45;;;;;;;;;;5026829;28;20069;-77
2022/10/22 00:05:40;;;;;;;11.05;9.77;;;;;;;;;;5026784;28;20508;-77
2022/10/22 00:08:07;;;;;;;14.02;8.95;;;;;;;;;;5027823;28;20515;-78
2022/10/22 00:10:37;;;;;;;10.00;9.00;;;;;;;;;;5012730;28;20046;-76
2022/10/22 00:13:04;;;;;;;15.63;9.52;;;;;;;;;;5030933;28;20386;-76
2022/10/22 00:15:31;;;;;;;12.45;9.55;;;;;;;;;;5023073;28;20046;-76
2022/10/22 00:17:59;;;;;;;11.13;9.75;;;;;;;;;;5027917;28;20049;-77
2022/10/22 00:20:26;;;;;;;16.90;11.82;;;;;;;;;;5054754;28;20576;-76
2022/10/22 00:22:53;;;;;;;13.70;10.20;;;;;;;;;;5024511;28;20053;-77
2022/10/22 00:25:20;;;;;;;11.23;9.40;;;;;;;;;;5013380;28;20139;-77
2022/10/22 00:27:48;;;;;;;10.73;8.77;;;;;;;;;;5012044;28;20101;-77
2022/10/22 00:30:15;;;;;;;14.70;9.07;;;;;;;;;;5029865;28;20041;-76
2022/10/22 00:32:42;;;;;;;10.20;9.20;;;;;;;;;;5028697;28;20048;-76
2022/10/22 00:35:10;;;;;;;11.32;9.13;;;;;;;;;;5028871;28;20268;-76
2022/10/22 00:37:37;;;;;;;11.23;8.80;;;;;;;;;;5026541;28;20041;-76
2022/10/22 00:40:04;;;;;;;12.57;9.45;;;;;;;;;;5026818;28;20045;-76
2022/10/22 00:42:32;;;;;;;12.10;9.65;;;;;;;;;;5026093;28;20045;-76
2022/10/22 00:45:11;;;;;;;10.98;9.27;;;;;;;;;;5058106;28;20558;-77
2022/10/22 00:47:40;;;;;;;10.27;9.23;;;;;;;;;;5025758;28;20133;-77
2022/10/22 00:50:10;;;;;;;11.80;9.55;;;;;;;;;;5025605;28;20128;-76
2022/10/22 00:52:38;;;;;;;11.93;9.57;;;;;;;;;;4989136;28;20099;-76
2022/10/22 00:55:06;;;;;;;11.32;9.38;;;;;;;;;;5042156;28;20447;-76
2022/10/22 00:57:34;;;;;;;11.65;9.75;;;;;;;;;;5027766;28;20509;-77
2022/10/22 01:00:01;;;;;;;12.13;9.15;;;;;;;;;;5026453;28;20766;-76
2022/10/22 01:02:28;;;;;;;11.38;9.93;;;;;;;;;;5025691;28;20037;-78
2022/10/22 01:04:56;;;;;;;12.15;9.20;;;;;;;;;;5022193;28;20516;-77
2022/10/22 01:07:23;;;;;;;12.68;9.15;;;;;;;;;;5023660;28;20045;-77
2022/10/22 01:10:00;;;;;;;11.55;9.15;;;;;;;;;;5024628;28;20397;-76
2022/10/22 01:12:39;;;;;;;11.63;8.65;;;;;;;;;;5027604;28;20042;-77
2022/10/22 01:15:17;;;;;;;13.13;8.70;;;;;;;;;;5025551;28;20038;-77
2022/10/22 01:18:11;;;;;;;9.85;8.77;;;;;;;;;;5027279;28;20087;-76
2022/10/22 01:21:00;;;;;;;14.25;9.77;;;;;;;;;;5025453;28;20057;-76
2022/10/22 01:23:47;;;;;;;11.82;9.15;;;;;;;;;;5025142;28;20037;-76
2022/10/22 01:26:33;;;;;;;14.70;8.88;;;;;;;;;;5056431;28;20041;-76
2022/10/22 01:29:00;;;;;;;10.85;9.73;;;;;;;;;;5054608;28;20058;-76
2022/10/22 01:31:37;;;;;;;13.57;10.00;;;;;;;;;;5027890;28;20038;-76
2022/10/22 01:34:07;;;;;;;17.67;10.48;;;;;;;;;;5027255;28;20041;-76
2022/10/22 01:36:35;;;;;;;11.55;10.10;;;;;;;;;;5026523;28;20128;-76
2022/10/22 01:39:03;;;;;;;12.23;10.13;;;;;;;;;;5026131;28;20539;-77
2022/10/22 01:41:30;;;;;;;12.05;9.70;;;;;;;;;;5020422;28;20233;-76
2022/10/22 01:43:58;;;;;;;16.65;10.30;;;;;;;;;;5028024;28;20389;-75
2022/10/22 01:46:26;;;;;;;14.18;10.43;;;;;;;;;;5027091;28;20140;-76
2022/10/22 01:49:03;;;;;;;12.38;9.88;;;;;;;;;;5059890;28;20083;-76
2022/10/22 01:51:54;;;;;;;17.33;10.10;;;;;;;;;;5011171;28;20065;-77
2022/10/22 01:54:31;;;;;;;22.48;9.60;;;;;;;;;;5022367;28;20068;-76
2022/10/22 01:57:08;;;;;;;15.85;9.35;;;;;;;;;;5023407;28;20132;-76
2022/10/22 01:59:44;;;;;;;12.38;9.15;;;;;;;;;;5025737;28;20045;-77
2022/10/22 02:02:21;;;;;;;15.05;9.48;;;;;;;;;;5027403;28;20053;-77
2022/10/22 02:04:50;;;;;;;16.15;9.48;;;;;;;;;;5025595;28;20075;-76
2022/10/22 02:07:19;;;;;;;11.20;9.38;;;;;;;;;;5057534;28;20045;-76
2022/10/22 02:09:47;;;;;;;17.85;9.45;;;;;;;;;;5026467;28;20133;-76
2022/10/22 02:12:15;;;;;;;13.75;8.88;;;;;;;;;;5018766;28;20046;-76
2022/10/22 02:14:43;;;;;;;14.43;10.10;;;;;;;;;;5027487;28;20493;-77
2022/10/22 02:17:13;;;;;;;11.52;9.23;;;;;;;;;;5027866;28;20508;-76
2022/10/22 02:19:40;;;;;;;12.43;8.98;;;;;;;;;;5028625;28;20067;-77
2022/10/22 02:22:07;;;;;;;11.70;9.38;;;;;;;;;;5030524;28;20041;-76
2022/10/22 02:24:35;;;;;;;13.18;8.93;;;;;;;;;;5031504;28;20041;-76
2022/10/22 02:27:21;;;;;;;10.77;9.68;;;;;;;;;;5028218;28;20041;-76
2022/10/22 02:29:57;;;;;;;12.50;10.02;;;;;;;;;;5029166;28;20037;-77
2022/10/22 02:32:26;;;;;;;11.45;9.88;;;;;;;;;;5046741;28;20116;-77
2022/10/22 02:34:55;;;;;;;13.23;10.18;;;;;;;;;;5031966;28;20095;-76
2022/10/22 02:37:24;;;;;;;10.27;9.07;;;;;;;;;;5028940;28;20052;-76
2022/10/22 02:39:51;;;;;;;12.13;8.98;;;;;;;;;;5027231;28;20167;-76
2022/10/22 02:42:19;;;;;;;10.98;9.88;;;;;;;;;;5046187;28;20041;-77
2022/10/22 02:44:46;;;;;;;12.15;8.63;;;;;;;;;;5011890;28;20065;-77
2022/10/22 02:47:13;;;;;;;16.38;9.95;;;;;;;;;;5028563;28;20073;-77
2022/10/22 02:49:41;;;;;;;10.93;9.63;;;;;;;;;;5051319;28;20662;-76
2022/10/22 02:52:08;;;;;;;19.55;9.50;;;;;;;;;;5027257;28;20049;-76
2022/10/22 02:54:35;;;;;;;12.10;9.02;;;;;;;;;;5027403;28;20034;-76
2022/10/22 02:57:03;;;;;;;11.90;9.10;;;;;;;;;;5030433;28;20045;-78
2022/10/22 02:59:30;;;;;;;12.07;9.63;;;;;;;;;;5004010;28;20073;-77
2022/10/22 03:01:57;;;;;;;11.10;9.55;;;;;;;;;;5028472;28;20117;-76
2022/10/22 03:04:25;;;;;;;14.38;9.80;;;;;;;;;;5025313;28;20045;-76
2022/10/22 03:06:52;;;;;;;10.70;9.50;;;;;;;;;;5028833;28;20041;-76
2022/10/22 03:09:19;;;;;;;15.68;9.85;;;;;;;;;;5029698;28;20137;-77
2022/10/22 03:11:51;;;;;;;12.95;9.43;;;;;;;;;;5028759;28;20128;-76
2022/10/22 03:14:18;;;;;;;14.52;11.07;;;;;;;;;;5028375;28;20033;-76
2022/10/22 03:16:45;;;;;;;10.20;9.07;;;;;;;;;;5036009;28;20072;-77
2022/10/22 03:19:13;;;;;;;11.18;9.70;;;;;;;;;;5029245;28;20137;-77
2022/10/22 03:21:42;;;;;;;10.80;9.18;;;;;;;;;;5022759;28;20119;-77
2022/10/22 03:24:13;;;;;;;10.07;8.80;;;;;;;;;;5027644;28;20041;-76
2022/10/22 03:26:40;;;;;;;13.57;9.85;;;;;;;;;;5021550;28;20037;-78
2022/10/22 03:29:09;;;;;;;13.77;10.60;;;;;;;;;;4995671;28;20428;-77
2022/10/22 03:31:37;;;;;;;12.20;9.15;;;;;;;;;;5021414;28;20100;-77
2022/10/22 03:34:04;;;;;;;11.82;10.63;;;;;;;;;;5028974;28;20065;-77
2022/10/22 03:36:32;;;;;;;11.05;9.85;;;;;;;;;;5027686;28;20589;-77
2022/10/22 03:39:00;;;;;;;18.73;10.43;;;;;;;;;;5019215;28;20129;-77
2022/10/22 03:41:28;;;;;;;16.55;10.80;;;;;;;;;;5017649;28;20073;-77
2022/10/22 03:43:56;;;;;;;11.85;10.32;;;;;;;;;;5043871;28;20105;-77
2022/10/22 03:46:23;;;;;;;16.60;11.48;;;;;;;;;;5025302;28;20058;-77
2022/10/22 03:48:50;;;;;;;11.80;10.55;;;;;;;;;;5029061;28;20041;-76
2022/10/22 03:51:18;;;;;;;13.38;10.77;;;;;;;;;;5029324;28;20045;-79
2022/10/22 03:53:45;;;;;;;14.45;10.60;;;;;;;;;;5043217;28;20072;-77
2022/10/22 03:56:13;;;;;;;13.73;10.82;;;;;;;;;;5040159;28;20044;-77
2022/10/22 03:58:41;;;;;;;19.40;11.05;;;;;;;;;;5020619;28;20120;-76
2022/10/22 04:01:10;;;;;;;16.08;10.70;;;;;;;;;;5031412;28;20076;-76
2022/10/22 04:03:37;;;;;;;15.05;11.15;;;;;;;;;;5027919;28;20045;-76
2022/10/22 04:06:05;;;;;;;15.20;11.73;;;;;;;;;;5027185;28;20476;-76
2022/10/22 04:08:33;;;;;;;13.00;10.35;;;;;;;;;;5028626;28;20448;-76
2022/10/22 04:11:00;;;;;;;14.65;11.57;;;;;;;;;;5018961;28;20155;-76
2022/10/22 04:13:27;;;;;;;17.65;11.52;;;;;;;;;;5024384;28;20095;-76
2022/10/22 04:15:55;;;;;;;18.40;12.15;;;;;;;;;;5009226;28;20042;-74
2022/10/22 04:18:22;;;;;;;14.20;11.60;;;;;;;;;;5043841;28;20500;-75
2022/10/22 04:20:51;;;;;;;18.17;12.20;;;;;;;;;;5029861;28;20038;-75
2022/10/22 04:23:18;;;;;;;18.35;12.27;;;;;;;;;;5028461;28;20056;-75
2022/10/22 04:25:46;;;;;;;14.35;12.10;;;;;;;;;;5024127;28;20053;-75
2022/10/22 04:28:13;;;;;;;17.60;11.75;;;;;;;;;;5025720;28;20556;-75
2022/10/22 04:30:40;;;;;;;13.23;11.30;;;;;;;;;;5025810;28;20049;-75
2022/10/22 04:33:07;;;;;;;14.63;11.85;;;;;;;;;;5026900;28;20048;-76
2022/10/22 04:35:37;;;;;;;17.63;13.45;;;;;;;;;;5027377;28;20029;-75
2022/10/22 04:38:04;;;;;;;17.42;13.02;;;;;;;;;;5027458;28;20132;-75
2022/10/22 04:40:32;;;;;;;19.65;12.55;;;;;;;;;;5029393;28;20140;-75
2022/10/22 04:42:59;;;;;;;20.67;14.15;;;;;;;;;;5026585;28;20500;-76
2022/10/22 04:45:26;;;;;;;22.92;14.90;;;;;;;;;;5004817;28;20071;-75
2022/10/22 04:47:54;;;;;;;18.98;15.13;;;;;;;;;;5023053;28;20056;-76
2022/10/22 04:50:21;;;;;;;23.52;15.23;;;;;;;;;;5028570;28;20064;-75
2022/10/22 04:52:48;;;;;;;22.77;16.25;;;;;;;;;;5027257;28;20081;-75
2022/10/22 04:55:15;;;;;;;25.60;17.25;;;;;;;;;;5044241;28;20029;-75
2022/10/22 04:57:43;;;;;;;28.08;16.98;;;;;;;;;;5026170;28;20497;-75
2022/10/22 05:00:10;;;;;;;20.90;14.35;;;;;;;;;;5027860;28;20041;-76
2022/10/22 05:02:38;;;;;;;22.85;16.48;;;;;;;;;;5023542;28;20401;-75
2022/10/22 05:05:05;;;;;;;18.38;15.00;;;;;;;;;;5006195;28;20080;-76
2022/10/22 05:07:32;;;;;;;25.25;16.05;;;;;;;;;;5020871;28;20618;-76
2022/10/22 05:10:01;;;;;;;23.90;16.35;;;;;;;;;;5009232;28;20099;-76
2022/10/22 05:12:29;;;;;;;20.63;15.88;;;;;;;;;;5017943;28;20410;-76
2022/10/22 05:14:57;;;;;;;19.73;14.10;;;;;;;;;;5011648;28;20492;-77
2022/10/22 05:17:24;;;;;;;23.30;16.02;;;;;;;;;;5013981;28;20045;-77
2022/10/22 05:19:52;;;;;;;24.05;16.67;;;;;;;;;;5017932;28;20042;-76
2022/10/22 05:22:19;;;;;;;19.90;14.60;;;;;;;;;;5027753;28;20045;-76
2022/10/22 05:24:49;;;;;;;26.17;17.25;;;;;;;;;;5015557;28;20038;-75
2022/10/22 05:27:16;;;;;;;19.05;15.60;;;;;;;;;;5015202;28;20057;-75
2022/10/22 05:29:48;;;;;;;28.40;18.83;;;;;;;;;;5023123;28;20052;-76
2022/10/22 05:32:15;;;;;;;26.88;18.80;;;;;;;;;;5031378;28;20056;-75
2022/10/22 05:34:43;;;;;;;32.05;21.33;;;;;;;;;;5040940;28;20598;-75
2022/10/22 05:37:10;;;;;;;35.38;19.60;;;;;;;;;;5021947;28;20068;-76
2022/10/22 05:39:39;;;;;;;31.25;19.10;;;;;;;;;;5022214;28;20087;-75
2022/10/22 05:42:06;;;;;;;36.13;21.63;;;;;;;;;;5041584;28;20112;-77
2022/10/22 05:44:34;;;;;;;32.80;21.88;;;;;;;;;;5025896;28;20045;-74
2022/10/22 05:47:01;;;;;;;38.78;23.48;;;;;;;;;;5024313;28;20481;-75
2022/10/22 05:49:28;;;;;;;31.73;21.90;;;;;;;;;;5024730;28;20040;-74
2022/10/22 05:51:55;;;;;;;40.58;21.55;;;;;;;;;;5024618;28;20066;-74
2022/10/22 05:54:23;;;;;;;28.83;21.00;;;;;;;;;;5042376;28;20117;-74
2022/10/22 05:56:50;;;;;;;35.33;23.15;;;;;;;;;;5046051;28;20045;-75
2022/10/22 05:59:17;;;;;;;32.60;23.10;;;;;;;;;;5028404;28;20037;-74
2022/10/22 06:01:44;;;;;;;38.70;23.77;;;;;;;;;;5031381;28;20050;-74
2022/10/22 06:04:13;;;;;;;35.58;22.27;;;;;;;;;;5030904;28;20041;-75
2022/10/22 06:06:50;;;;;;;42.95;25.67;;;;;;;;;;5010873;28;20144;-74
2022/10/22 06:09:19;;;;;;;43.65;24.88;;;;;;;;;;5025967;28;20049;-74
2022/10/22 06:11:47;;;;;;;47.78;24.73;;;;;;;;;;5023224;28;20544;-74
2022/10/22 06:14:14;;;;;;;41.03;23.88;;;;;;;;;;5023480;28;20041;-74
2022/10/22 06:16:44;;;;;;;57.00;27.95;;;;;;;;;;5043270;28;20046;-74
2022/10/22 06:19:12;;;;;;;52.53;27.92;;;;;;;;;;5025533;28;20578;-74
2022/10/22 06:21:39;;;;;;;46.85;26.40;;;;;;;;;;5028166;28;20069;-74
2022/10/22 06:24:06;;;;;;;42.95;24.25;;;;;;;;;;5038007;28;20491;-74
2022/10/22 06:26:34;;;;;;;58.92;28.73;;;;;;;;;;5031229;28;20049;-75
2022/10/22 06:29:01;;;;;;;46.40;25.92;;;;;;;;;;5030187;28;20580;-74
2022/10/22 06:31:35;;;;;;;47.03;25.70;;;;;;;;;;5031009;28;20041;-88
2022/10/22 06:34:03;;;;;;;42.53;24.23;;;;;;;;;;5027489;28;20132;-74
2022/10/22 06:36:30;;;;;;;50.55;25.58;;;;;;;;;;5025540;28;20047;-75
2022/10/22 06:38:58;;;;;;;51.28;26.20;;;;;;;;;;5037337;28;20045;-75
2022/10/22 06:41:25;;;;;;;51.70;27.27;;;;;;;;;;5031479;28;20125;-75
2022/10/22 06:44:16;;;;;;;50.63;26.23;;;;;;;;;;5042455;28;20500;-76
2022/10/22 06:46:44;;;;;;;56.17;28.27;;;;;;;;;;5008761;28;20126;-75
2022/10/22 06:49:13;;;;;;;58.38;26.60;;;;;;;;;;4996154;28;20045;-75
2022/10/22 06:51:40;;;;;;;65.65;27.88;;;;;;;;;;5028358;28;20064;-75
2022/10/22 06:54:07;;;;;;;58.55;27.30;;;;;;;;;;5036027;28;20122;-75
2022/10/22 06:56:35;;;;;;;54.22;25.45;;;;;;;;;;5044740;28;20033;-75
2022/10/22 06:59:02;;;;;;;54.63;29.15;;;;;;;;;;5029828;28;20087;-75
2022/10/22 07:01:31;;;;;;;56.78;28.75;;;;;;;;;;5026285;28;20049;-75
2022/10/22 07:03:59;;;;;;;65.35;29.95;;;;;;;;;;5026233;28;20120;-75
2022/10/22 07:06:27;;;;;;;57.15;27.83;;;;;;;;;;5022800;28;20044;-75
2022/10/22 07:08:55;;;;;;;47.13;24.35;;;;;;;;;;5025214;28;20135;-75
2022/10/22 07:11:24;;;;;;;49.65;25.63;;;;;;;;;;5026533;28;20038;-75
2022/10/22 07:13:53;;;;;;;51.58;27.48;;;;;;;;;;5023312;28;20100;-75
2022/10/22 07:16:20;;;;;;;46.80;26.42;;;;;;;;;;5020370;28;20061;-75
2022/10/22 07:18:47;;;;;;;49.53;25.15;;;;;;;;;;5027496;28;20084;-75
2022/10/22 07:21:16;;;;;;;61.92;29.25;;;;;;;;;;5028647;28;20068;-76
2022/10/22 07:23:44;;;;;;;49.60;26.60;;;;;;;;;;5028337;28;20049;-76
2022/10/22 07:26:23;;;;;;;52.42;25.98;;;;;;;;;;5038410;28;20527;-85
2022/10/22 07:28:51;;;;;;;61.00;27.23;;;;;;;;;;5038834;28;20053;-82
2022/10/22 07:31:18;;;;;;;52.97;27.70;;;;;;;;;;5026173;28;20067;-82
2022/10/22 07:33:48;;;;;;;58.28;29.90;;;;;;;;;;5028313;28;20526;-81
2022/10/22 07:36:19;;;;;;;59.10;30.15;;;;;;;;;;5027406;28;20061;-81
2022/10/22 07:38:47;;;;;;;73.83;33.07;;;;;;;;;;5025140;28;20078;-81
2022/10/22 07:41:15;;;;;;;60.85;29.55;;;;;;;;;;5031104;28;20124;-81
2022/10/22 07:43:42;;;;;;;63.58;30.20;;;;;;;;;;5046538;28;20049;-82
2022/10/22 07:46:10;;;;;;;68.88;32.95;;;;;;;;;;5031424;28;20152;-82
2022/10/22 07:48:38;;;;;;;67.82;29.65;;;;;;;;;;5034722;28;20041;-81
2022/10/22 07:51:05;;;;;;;64.93;31.45;;;;;;;;;;5034116;28;20485;-81
2022/10/22 07:53:32;;;;;;;57.55;28.60;;;;;;;;;;5030248;28;20526;-82
2022/10/22 07:56:02;;;;;;;56.13;29.08;;;;;;;;;;5031153;28;20033;-82
2022/10/22 07:58:31;;;;;;;67.38;30.00;;;;;;;;;;5014557;28;20045;-82
2022/10/22 08:01:00;;;;;;;61.60;30.30;;;;;;;;;;5031115;28;20041;-82
2022/10/22 08:03:27;;;;;;;62.25;29.45;;;;;;;;;;5032248;28;20053;-82
2022/10/22 08:05:55;;;;;;;64.65;28.75;;;;;;;;;;5032774;28;20075;-81
2022/10/22 08:08:22;;;;;;;53.85;27.35;;;;;;;;;;5050997;28;20033;-82
2022/10/22 08:10:57;;;;;;;49.55;26.55;;;;;;;;;;5033664;28;20045;-81
2022/10/22 08:13:26;;;;;;;63.50;28.48;;;;;;;;;;5029028;28;20128;-82
2022/10/22 08:15:53;;;;;;;55.58;26.38;;;;;;;;;;5030307;28;20524;-81
2022/10/22 08:18:24;;;;;;;56.38;27.13;;;;;;;;;;5037614;28;20131;-81
2022/10/22 08:20:51;;;;;;;55.00;26.80;;;;;;;;;;5045432;28;20136;-82
2022/10/22 08:23:18;;;;;;;57.97;28.23;;;;;;;;;;5044252;28;20041;-81
2022/10/22 08:25:52;;;;;;;54.17;26.92;;;;;;;;;;5043336;28;20061;-82
2022/10/22 08:28:20;;;;;;;48.05;25.13;;;;;;;;;;5041511;28;20049;-82
2022/10/22 08:30:48;;;;;;;51.10;26.20;;;;;;;;;;5044434;28;20056;-82
2022/10/22 08:33:16;;;;;;;60.00;27.02;;;;;;;;;;5043548;28;20064;-82
2022/10/22 08:35:48;;;;;;;53.58;27.85;;;;;;;;;;5042663;28;20049;-81
2022/10/22 08:38:15;;;;;;;57.75;29.00;;;;;;;;;;5026959;28;20096;-81
2022/10/22 08:40:48;;;;;;;53.72;27.70;;;;;;;;;;5039729;28;20097;-81
2022/10/22 08:43:35;;;;;;;59.72;28.40;;;;;;;;;;5027568;28;20057;-81
2022/10/22 08:46:05;;;;;;;57.30;26.52;;;;;;;;;;5033765;28;20094;-81
2022/10/22 08:48:50;;;;;;;53.70;24.85;;;;;;;;;;5043984;28;20080;-83
2022/10/22 08:51:19;;;;;;;57.97;27.92;;;;;;;;;;5053522;28;20038;-80
2022/10/22 08:54:06;;;;;;;46.72;23.90;;;;;;;;;;5052932;28;20041;-82
2022/10/22 08:56:38;;;;;;;58.10;27.10;;;;;;;;;;5008971;28;20041;-82
2022/10/22 08:59:11;;;;;;;48.97;25.63;;;;;;;;;;5009957;28;20136;-80
2022/10/22 09:01:43;;;;;;;49.33;23.92;;;;;;;;;;5021678;28;20061;-82
2022/10/22 09:04:29;;;;;;;50.90;25.13;;;;;;;;;;5020772;28;20045;-83
2022/10/22 09:07:03;;;;;;;53.17;25.95;;;;;;;;;;5037943;28;20096;-82
2022/10/22 09:09:40;;;;;;;53.08;26.23;;;;;;;;;;5032637;28;20064;-81
2022/10/22 09:12:14;;;;;;;41.03;22.25;;;;;;;;;;5043974;28;20073;-82
2022/10/22 09:14:46;;;;;;;39.17;20.52;;;;;;;;;;5036402;28;20073;-82
2022/10/22 09:17:26;;;;;;;48.80;23.70;;;;;;;;;;5050948;28;20037;-80
2022/10/22 09:20:11;;;;;;;53.65;24.15;;;;;;;;;;5042176;28;20044;-81
2022/10/22 09:22:49;;;;;;;47.33;22.38;;;;;;;;;;5028691;28;20144;-81
2022/10/22 09:25:24;;;;;;;41.50;21.20;;;;;;;;;;5054124;28;20049;-81
2022/10/22 09:27:57;;;;;;;33.75;19.67;;;;;;;;;;5034939;28;20128;-81
2022/10/22 09:30:25;;;;;;;51.65;23.70;;;;;;;;;;5047045;28;20127;-82
2022/10/22 09:33:01;;;;;;;47.35;22.92;;;;;;;;;;5050488;28;20057;-81
2022/10/22 09:35:46;;;;;;;41.08;21.42;;;;;;;;;;5030502;28;20071;-81
2022/10/22 09:38:16;;;;;;;54.00;23.52;;;;;;;;;;5046093;28;20061;-81
2022/10/22 09:40:54;;;;;;;46.70;23.60;;;;;;;;;;5024833;28;20040;-80
2022/10/22 09:43:21;;;;;;;44.63;22.27;;;;;;;;;;5045637;28;20052;-80
2022/10/22 09:45:55;;;;;;;43.25;22.25;;;;;;;;;;5044333;28;20038;-81
2022/10/22 09:48:29;;;;;;;40.25;21.77;;;;;;;;;;5045357;28;20037;-81
2022/10/22 09:51:18;;;;;;;41.15;20.10;;;;;;;;;;5039378;28;20030;-80
2022/10/22 09:53:46;;;;;;;40.15;21.13;;;;;;;;;;5040197;28;20100;-81
2022/10/22 09:56:20;;;;;;;36.45;20.05;;;;;;;;;;5024091;28;20073;-80
2022/10/22 09:58:50;;;;;;;40.72;20.08;;;;;;;;;;5042981;28;20050;-81
2022/10/22 10:01:21;;;;;;;41.95;20.48;;;;;;;;;;5046368;28;20047;-80
2022/10/22 10:03:49;;;;;;;37.65;19.92;;;;;;;;;;5028130;28;20179;-80
2022/10/22 10:06:20;;;;;;;35.22;18.00;;;;;;;;;;5024489;28;20496;-81
2022/10/22 10:08:48;;;;;;;41.58;20.75;;;;;;;;;;5039697;28;20060;-82
2022/10/22 10:11:26;;;;;;;34.53;18.35;;;;;;;;;;5056199;28;20060;-80
2022/10/22 10:14:05;;;;;;;38.50;20.08;;;;;;;;;;5016926;28;20045;-81
2022/10/22 10:16:51;;;;;;;34.83;17.48;;;;;;;;;;5050862;28;20044;-80
2022/10/22 10:19:29;;;;;;;34.25;18.45;;;;;;;;;;5041915;28;20271;-81
2022/10/22 10:22:05;;;;;;;34.17;17.67;;;;;;;;;;5038113;28;20076;-80
2022/10/22 10:24:44;;;;;;;33.80;17.08;;;;;;;;;;5033334;28;20037;-81
2022/10/22 10:27:19;;;;;;;35.90;18.08;;;;;;;;;;5036670;28;20049;-82
2022/10/22 10:29:55;;;;;;;33.33;16.67;;;;;;;;;;5036811;28;20496;-80
2022/10/22 10:32:40;;;;;;;31.85;16.85;;;;;;;;;;5037071;28;20042;-80
2022/10/22 10:35:27;;;;;;;29.10;15.05;;;;;;;;;;5035186;28;20560;-80
2022/10/22 10:38:13;;;;;;;31.23;16.75;;;;;;;;;;5030149;28;20033;-80
2022/10/22 10:40:43;;;;;;;32.70;16.65;;;;;;;;;;5044562;28;20049;-80
2022/10/22 10:43:14;;;;;;;38.33;18.73;;;;;;;;;;5033541;28;20053;-81
2022/10/22 10:45:51;;;;;;;33.97;17.50;;;;;;;;;;5032125;28;20747;-80
2022/10/22 10:48:22;;;;;;;32.30;16.80;;;;;;;;;;5034176;28;20043;-80
2022/10/22 10:50:56;;;;;;;27.98;16.30;;;;;;;;;;5034370;28;20053;-79
2022/10/22 10:53:26;;;;;;;30.15;16.02;;;;;;;;;;5031894;28;20045;-81
2022/10/22 10:55:53;;;;;;;28.70;16.33;;;;;;;;;;5031324;28;20041;-80
2022/10/22 10:58:23;;;;;;;33.78;17.00;;;;;;;;;;5031752;28;20427;-81
2022/10/22 11:01:01;;;;;;;25.40;14.88;;;;;;;;;;5032738;28;20492;-81
2022/10/22 11:03:40;;;;;;;26.88;14.80;;;;;;;;;;5032172;28;20550;-81
2022/10/22 11:06:09;;;;;;;16.63;10.35;;;;;;;;;;5032495;28;20115;-81
2022/10/22 11:08:38;;;;;;;21.23;12.45;;;;;;;;;;5038966;28;20038;-81
2022/10/22 11:11:16;;;;;;;21.27;12.73;;;;;;;;;;5039541;28;20132;-80
2022/10/22 11:13:48;;;;;;;27.02;14.68;;;;;;;;;;5051067;28;20037;-80
2022/10/22 11:16:15;;;;;;;28.00;14.98;;;;;;;;;;5036299;28;20034;-83
2022/10/22 11:18:47;;;;;;;26.75;14.15;;;;;;;;;;5039832;28;20042;-83
2022/10/22 11:21:14;;;;;;;;;;;;;;;;;;5057422;28;20044;-80
2022/10/22 11:24:02;;;;;;;19.48;11.63;;;;;;;;;;5053063;28;19979;-81
2022/10/22 11:26:43;;;;;;;23.33;13.10;;;;;;;;;;5032271;28;20136;-80
2022/10/22 11:29:12;;;;;;;34.08;17.00;;;;;;;;;;5033435;28;20049;-81
2022/10/22 11:31:41;;;;;;;24.83;15.32;;;;;;;;;;5031366;28;20756;-81
2022/10/22 11:34:18;;;;;;;25.52;14.20;;;;;;;;;;5034419;28;20067;-80
2022/10/22 11:37:00;;;;;;;20.40;12.57;;;;;;;;;;5031927;28;20459;-80
2022/10/22 11:39:40;;;;;;;19.05;12.00;;;;;;;;;;5033430;28;20102;-80
2022/10/22 11:42:17;;;;;;;20.08;12.45;;;;;;;;;;5033932;28;20092;-80
2022/10/22 11:44:46;;;;;;;19.25;11.18;;;;;;;;;;5032273;28;20068;-80
2022/10/22 11:47:19;;;;;;;19.38;11.30;;;;;;;;;;5031103;28;20405;-80
2022/10/22 11:49:55;;;;;;;15.98;9.77;;;;;;;;;;5032955;28;20045;-81
2022/10/22 11:52:24;;;;;;;18.38;10.73;;;;;;;;;;5064785;28;20050;-81
2022/10/22 11:54:54;;;;;;;19.75;11.90;;;;;;;;;;5033753;28;20148;-80
2022/10/22 11:57:37;;;;;;;18.88;11.77;;;;;;;;;;5033344;28;20044;-81
2022/10/22 12:00:10;;;;;;;16.45;10.45;;;;;;;;;;5031501;28;20077;-81
2022/10/22 12:02:39;;;;;;;16.73;10.18;;;;;;;;;;5038185;28;20070;-79
2022/10/22 12:05:18;;;;;;;15.97;9.87;;;;;;;;;;5030454;28;20065;-82
2022/10/22 12:07:57;;;;;;;16.50;9.77;;;;;;;;;;5033915;28;20084;-83
2022/10/22 12:10:54;;;;;;;14.38;10.05;;;;;;;;;;5047608;28;20037;-82
2022/10/22 12:13:23;;;;;;;14.77;9.88;;;;;;;;;;4995303;28;20050;-81
2022/10/22 12:15:56;;;;;;;9.48;7.32;;;;;;;;;;5039077;28;20150;-83
2022/10/22 12:18:25;;;;;;;16.58;9.40;;;;;;;;;;5035035;28;20041;-80
2022/10/22 12:20:53;;;;;;;12.77;8.77;;;;;;;;;;5036699;28;20586;-81
2022/10/22 12:23:24;;;;;;;17.23;9.55;;;;;;;;;;5035709;28;20053;-80
2022/10/22 12:25:52;;;;;;;8.10;5.60;;;;;;;;;;5039331;28;20055;-81
2022/10/22 12:28:19;;;;;;;8.85;5.93;;;;;;;;;;5040370;28;20057;-81
2022/10/22 12:30:47;;;;;;;8.13;4.30;;;;;;;;;;5037539;28;20049;-81
2022/10/22 12:33:19;;;;;;;5.75;3.40;;;;;;;;;;5038173;28;20056;-83
2022/10/22 12:38:47;;;;;;;8.15;3.30;;;;;;;;;;5021201;28;20042;-80
2022/10/22 12:41:15;;;;;;;2.92;2.70;;;;;;;;;;5022376;28;20041;-79
2022/10/22 12:43:42;;;;;;;5.18;2.65;;;;;;;;;;5023603;28;20037;-81
2022/10/22 12:46:15;;;;;;;2.75;2.55;;;;;;;;;;5024657;28;20137;-80
2022/10/22 12:48:43;;;;;;;2.25;2.00;;;;;;;;;;5026148;28;20050;-79
2022/10/22 12:51:19;;;;;;;2.67;2.30;;;;;;;;;;5026791;28;20427;-82
2022/10/22 12:53:48;;;;;;;2.38;2.28;;;;;;;;;;5024251;28;20495;-80
2022/10/22 12:56:20;;;;;;;4.10;2.30;;;;;;;;;;5008526;28;20339;-80
2022/10/22 12:58:51;;;;;;;2.45;2.35;;;;;;;;;;5024920;28;20046;-80
2022/10/22 13:01:18;;;;;;;2.00;1.90;;;;;;;;;;5025687;28;20487;-79
2022/10/22 13:03:51;;;;;;;1.88;1.75;;;;;;;;;;5017595;28;20077;-80
2022/10/22 13:06:18;;;;;;;3.45;1.75;;;;;;;;;;5026336;28;20077;-80
2022/10/22 13:09:00;;;;;;;3.15;2.20;;;;;;;;;;5006345;28;20581;-80
2022/10/22 13:11:32;;;;;;;8.65;2.00;;;;;;;;;;5020084;28;20359;-79
2022/10/22 13:14:00;;;;;;;;;;;;;;;;;;5025236;28;20057;-79
2022/10/22 13:16:28;;;;;;;5.57;2.22;;;;;;;;;;5025978;28;19943;-78
2022/10/22 13:18:57;;;;;;;4.78;1.83;;;;;;;;;;4980222;28;20335;-79
2022/10/22 13:21:26;;;;;;;5.25;1.98;;;;;;;;;;5017078;28;20084;-81
2022/10/22 13:23:55;;;;;;;1.95;1.80;;;;;;;;;;5015094;28;20064;-81
2022/10/22 13:26:24;;;;;;;2.13;1.92;;;;;;;;;;5020041;28;20436;-79
2022/10/22 13:28:53;;;;;;;2.38;1.83;;;;;;;;;;5001855;28;20057;-79
2022/10/22 13:31:25;;;;;;;4.82;2.67;;;;;;;;;;4997602;28;20072;-80
2022/10/22 13:33:55;;;;;;;2.63;1.80;;;;;;;;;;5003882;28;20511;-82
2022/10/22 13:36:23;;;;;;;2.00;1.80;;;;;;;;;;5021654;28;20510;-80
2022/10/22 13:38:51;;;;;;;4.03;1.92;;;;;;;;;;5014451;28;20447;-81
2022/10/22 13:41:19;;;;;;;1.70;1.60;;;;;;;;;;5010775;28;20041;-83
2022/10/22 13:43:47;;;;;;;3.88;2.30;;;;;;;;;;4980078;28;20107;-81
2022/10/22 13:46:15;;;;;;;2.78;2.00;;;;;;;;;;5018013;28;20053;-80
2022/10/22 13:48:46;;;;;;;3.95;2.00;;;;;;;;;;5025578;28;20096;-81
2022/10/22 13:51:18;;;;;;;2.50;2.15;;;;;;;;;;4995917;28;20089;-80
2022/10/22 13:53:46;;;;;;;2.67;2.47;;;;;;;;;;5011156;28;20055;-82
2022/10/22 13:56:17;;;;;;;5.10;1.92;;;;;;;;;;4994700;28;20056;-82
2022/10/22 13:58:45;;;;;;;2.42;2.00;;;;;;;;;;4995192;28;20053;-80
2022/10/22 14:01:24;;;;;;;2.10;2.00;;;;;;;;;;5016206;28;20507;-79
2022/10/22 14:03:54;;;;;;;2.13;2.03;;;;;;;;;;5016219;28;20128;-83
2022/10/22 14:06:22;;;;;;;5.65;2.50;;;;;;;;;;5014260;28;20124;-81
2022/10/22 14:08:53;;;;;;;5.15;2.30;;;;;;;;;;5015920;28;20057;-81
2022/10/22 14:11:21;;;;;;;2.67;1.80;;;;;;;;;;5015036;28;20145;-80
2022/10/22 14:13:48;;;;;;;2.35;1.70;;;;;;;;;;4985108;28;20061;-79
2022/10/22 14:16:18;;;;;;;4.05;1.70;;;;;;;;;;5006503;28;20073;-80
2022/10/22 14:18:47;;;;;;;1.60;1.50;;;;;;;;;;5027962;28;20049;-80
2022/10/22 14:21:15;;;;;;;2.38;1.80;;;;;;;;;;5025393;28;20410;-79
2022/10/22 14:23:44;;;;;;;1.88;1.77;;;;;;;;;;5025868;28;20081;-79
2022/10/22 14:26:19;;;;;;;4.95;2.55;;;;;;;;;;5025423;28;20060;-80
2022/10/22 14:28:47;;;;;;;2.40;2.20;;;;;;;;;;5023997;28;20049;-79
2022/10/22 14:31:36;;;;;;;3.78;2.70;;;;;;;;;;5022733;28;20561;-81
2022/10/22 14:34:03;;;;;;;4.85;2.10;;;;;;;;;;5027445;28;20045;-80
2022/10/22 14:36:31;;;;;;;3.58;2.25;;;;;;;;;;5027270;28;20045;-79
2022/10/22 14:38:58;;;;;;;3.22;2.70;;;;;;;;;;5027281;28;20045;-81
2022/10/22 14:41:27;;;;;;;3.60;3.30;;;;;;;;;;5025550;28;20064;-81
2022/10/22 14:43:55;;;;;;;5.78;3.83;;;;;;;;;;5030300;28;20060;-81
2022/10/22 14:46:22;;;;;;;7.63;3.75;;;;;;;;;;5007484;28;20077;-82
2022/10/22 14:48:50;;;;;;;4.78;3.38;;;;;;;;;;5025956;28;20156;-79